sensor_id;sensor_type;location;lat;lon;timestamp;P1;durP1;ratioP1;P2;durP2;ratioP2
70927;SDS011;58587;53.034;18.576;2023-05-07T00:00:08;38.07;;;21.10;;
70927;SDS011;58587;53.034;18.576;2023-05-07T00:02:34;34.85;;;20.25;;
70927;SDS011;58587;53.034;18.576;2023-05-07T00:05:00;36.83;;;22.33;;
70927;SDS011;58587;53.034;18.576;2023-05-07T00:07:27;37.08;;;19.63;;
70927;SDS011;58587;53.034;18.576;2023-05-07T00:09:52;31.83;;;17.70;;
70927;SDS011;58587;53.034;18.576;2023-05-07T00:12:17;32.87;;;17.73;;
70927;SDS011;58587;53.034;18.576;2023-05-07T00:14:43;35.47;;;19.20;;
70927;SDS011;58587;53.034;18.576;2023-05-07T00:17:08;30.37;;;17.20;;
70927;SDS011;58587;53.034;18.576;2023-05-07T00:19:33;32.50;;;17.20;;
70927;SDS011;58587;53.034;18.576;2023-05-07T00:21:59;31.15;;;15.90;;
70927;SDS011;58587;53.034;18.576;2023-05-07T00:24:24;31.23;;;15.60;;
70927;SDS011;58587;53.034;18.576;2023-05-07T09:44:25;4.75;;;2.30;;
70927;SDS011;58587;53.034;18.576;2023-05-07T09:46:53;8.23;;;4.75;;
70927;SDS011;58587;53.034;18.576;2023-05-07T09:49:20;7.07;;;3.70;;
70927;SDS011;58587;53.034;18.576;2023-05-07T09:51:48;5.47;;;3.30;;
70927;SDS011;58587;53.034;18.576;2023-05-07T09:54:15;5.25;;;2.80;;
70927;SDS011;58587;53.034;18.576;2023-05-07T09:56:45;5.57;;;2.95;;
70927;SDS011;58587;53.034;18.576;2023-05-07T09:59:12;7.07;;;3.20;;
70927;SDS011;58587;53.034;18.576;2023-05-07T10:01:40;3.42;;;2.60;;
70927;SDS011;58587;53.034;18.576;2023-05-07T10:04:07;11.20;;;6.10;;
70927;SDS011;58587;53.034;18.576;2023-05-07T10:06:35;4.75;;;3.10;;
70927;SDS011;58587;53.034;18.576;2023-05-07T10:09:02;4.13;;;2.83;;
70927;SDS011;58587;53.034;18.576;2023-05-07T10:11:30;3.00;;;2.28;;
70927;SDS011;58587;53.034;18.576;2023-05-07T10:13:58;3.55;;;2.53;;
70927;SDS011;58587;53.034;18.576;2023-05-07T10:16:23;5.03;;;3.13;;
70927;SDS011;58587;53.034;18.576;2023-05-07T10:18:50;3.42;;;2.70;;
70927;SDS011;58587;53.034;18.576;2023-05-07T10:21:20;3.63;;;2.77;;
70927;SDS011;58587;53.034;18.576;2023-05-07T10:23:50;5.88;;;2.70;;
70927;SDS011;58587;53.034;18.576;2023-05-07T10:26:18;4.95;;;3.13;;
70927;SDS011;58587;53.034;18.576;2023-05-07T10:28:47;3.83;;;2.70;;
70927;SDS011;58587;53.034;18.576;2023-05-07T10:33:50;3.27;;;2.60;;
70927;SDS011;58587;53.034;18.576;2023-05-07T10:36:17;4.20;;;2.55;;
70927;SDS011;58587;53.034;18.576;2023-05-07T10:38:43;3.75;;;2.85;;
70927;SDS011;58587;53.034;18.576;2023-05-07T10:41:09;5.47;;;2.63;;
70927;SDS011;58587;53.034;18.576;2023-05-07T10:43:39;6.23;;;2.57;;
70927;SDS011;58587;53.034;18.576;2023-05-07T10:46:16;4.43;;;3.08;;
70927;SDS011;58587;53.034;18.576;2023-05-07T10:51:33;4.68;;;2.85;;
70927;SDS011;58587;53.034;18.576;2023-05-07T10:54:33;4.43;;;2.72;;
70927;SDS011;58587;53.034;18.576;2023-05-07T10:56:51;9.20;;;5.03;;
70927;SDS011;58587;53.034;18.576;2023-05-07T11:01:53;7.73;;;6.13;;
70927;SDS011;58587;53.034;18.576;2023-05-07T11:04:19;3.13;;;2.45;;
70927;SDS011;58587;53.034;18.576;2023-05-07T11:15:11;3.40;;;2.40;;
70927;SDS011;58587;53.034;18.576;2023-05-07T11:17:54;4.72;;;3.10;;
70927;SDS011;58587;53.034;18.576;2023-05-07T11:20:20;2.85;;;2.10;;
70927;SDS011;58587;53.034;18.576;2023-05-07T11:23:06;4.07;;;2.75;;
70927;SDS011;58587;53.034;18.576;2023-05-07T11:25:31;4.50;;;3.80;;
70927;SDS011;58587;53.034;18.576;2023-05-07T11:28:02;4.70;;;2.83;;
70927;SDS011;58587;53.034;18.576;2023-05-07T11:30:29;4.88;;;3.60;;
70927;SDS011;58587;53.034;18.576;2023-05-07T11:32:55;3.47;;;2.07;;
70927;SDS011;58587;53.034;18.576;2023-05-07T11:35:22;12.77;;;6.23;;
70927;SDS011;58587;53.034;18.576;2023-05-07T11:37:48;6.78;;;3.22;;
70927;SDS011;58587;53.034;18.576;2023-05-07T11:40:14;3.67;;;2.20;;
70927;SDS011;58587;53.034;18.576;2023-05-07T11:42:39;2.30;;;1.80;;
70927;SDS011;58587;53.034;18.576;2023-05-07T11:45:08;3.20;;;2.20;;
70927;SDS011;58587;53.034;18.576;2023-05-07T11:47:34;2.65;;;1.88;;
70927;SDS011;58587;53.034;18.576;2023-05-07T11:50:04;3.00;;;1.93;;
70927;SDS011;58587;53.034;18.576;2023-05-07T11:52:30;3.10;;;1.90;;
70927;SDS011;58587;53.034;18.576;2023-05-07T11:54:57;5.30;;;2.20;;
70927;SDS011;58587;53.034;18.576;2023-05-07T11:57:24;3.53;;;2.05;;
70927;SDS011;58587;53.034;18.576;2023-05-07T11:59:58;3.47;;;2.05;;
70927;SDS011;58587;53.034;18.576;2023-05-07T12:02:24;4.57;;;2.37;;
70927;SDS011;58587;53.034;18.576;2023-05-07T12:04:50;5.63;;;2.70;;
70927;SDS011;58587;53.034;18.576;2023-05-07T12:07:16;2.92;;;2.00;;
70927;SDS011;58587;53.034;18.576;2023-05-07T12:09:42;3.38;;;1.60;;
70927;SDS011;58587;53.034;18.576;2023-05-07T12:12:08;2.10;;;1.80;;
70927;SDS011;58587;53.034;18.576;2023-05-07T12:14:37;4.25;;;2.10;;
70927;SDS011;58587;53.034;18.576;2023-05-07T12:17:09;4.03;;;2.10;;
70927;SDS011;58587;53.034;18.576;2023-05-07T12:19:39;4.72;;;2.13;;
70927;SDS011;58587;53.034;18.576;2023-05-07T12:22:09;8.47;;;5.33;;
70927;SDS011;58587;53.034;18.576;2023-05-07T12:24:44;6.78;;;4.65;;
70927;SDS011;58587;53.034;18.576;2023-05-07T12:27:10;3.00;;;2.40;;
70927;SDS011;58587;53.034;18.576;2023-05-07T12:29:35;3.80;;;2.13;;
70927;SDS011;58587;53.034;18.576;2023-05-07T12:32:03;3.22;;;2.10;;
70927;SDS011;58587;53.034;18.576;2023-05-07T12:34:29;4.18;;;1.88;;
70927;SDS011;58587;53.034;18.576;2023-05-07T12:36:56;3.03;;;1.83;;
70927;SDS011;58587;53.034;18.576;2023-05-07T12:39:21;7.83;;;2.30;;
70927;SDS011;58587;53.034;18.576;2023-05-07T12:44:21;3.83;;;2.00;;
70927;SDS011;58587;53.034;18.576;2023-05-07T12:46:47;2.77;;;1.73;;
70927;SDS011;58587;53.034;18.576;2023-05-07T12:49:12;4.40;;;2.10;;
70927;SDS011;58587;53.034;18.576;2023-05-07T12:51:38;4.43;;;2.40;;
70927;SDS011;58587;53.034;18.576;2023-05-07T12:54:03;3.97;;;2.00;;
70927;SDS011;58587;53.034;18.576;2023-05-07T12:56:30;3.60;;;2.00;;
70927;SDS011;58587;53.034;18.576;2023-05-07T12:58:59;2.70;;;2.20;;
70927;SDS011;58587;53.034;18.576;2023-05-07T13:01:28;2.88;;;2.20;;
70927;SDS011;58587;53.034;18.576;2023-05-07T13:03:55;7.05;;;2.60;;
70927;SDS011;58587;53.034;18.576;2023-05-07T13:06:20;3.80;;;2.57;;
70927;SDS011;58587;53.034;18.576;2023-05-07T13:08:45;4.93;;;2.10;;
70927;SDS011;58587;53.034;18.576;2023-05-07T13:11:11;3.40;;;2.40;;
70927;SDS011;58587;53.034;18.576;2023-05-07T13:13:38;2.92;;;2.20;;
70927;SDS011;58587;53.034;18.576;2023-05-07T13:16:05;3.60;;;1.92;;
70927;SDS011;58587;53.034;18.576;2023-05-07T13:18:32;4.20;;;2.40;;
70927;SDS011;58587;53.034;18.576;2023-05-07T13:20:58;3.75;;;2.47;;
70927;SDS011;58587;53.034;18.576;2023-05-07T13:23:24;8.15;;;6.03;;
70927;SDS011;58587;53.034;18.576;2023-05-07T13:25:49;3.87;;;2.17;;
70927;SDS011;58587;53.034;18.576;2023-05-07T13:28:15;3.30;;;2.67;;
70927;SDS011;58587;53.034;18.576;2023-05-07T13:30:41;3.13;;;2.20;;
70927;SDS011;58587;53.034;18.576;2023-05-07T13:33:08;6.97;;;2.17;;
70927;SDS011;58587;53.034;18.576;2023-05-07T13:35:34;4.47;;;2.53;;
70927;SDS011;58587;53.034;18.576;2023-05-07T13:38:00;3.20;;;2.22;;
70927;SDS011;58587;53.034;18.576;2023-05-07T13:40:25;2.70;;;2.40;;
70927;SDS011;58587;53.034;18.576;2023-05-07T13:42:51;2.67;;;2.00;;
70927;SDS011;58587;53.034;18.576;2023-05-07T13:45:17;3.72;;;2.35;;
70927;SDS011;58587;53.034;18.576;2023-05-07T13:47:43;5.28;;;3.03;;
70927;SDS011;58587;53.034;18.576;2023-05-07T13:50:09;6.50;;;3.63;;
70927;SDS011;58587;53.034;18.576;2023-05-07T13:52:36;3.15;;;2.53;;
70927;SDS011;58587;53.034;18.576;2023-05-07T13:55:02;3.80;;;2.42;;
70927;SDS011;58587;53.034;18.576;2023-05-07T13:57:28;2.67;;;1.97;;
70927;SDS011;58587;53.034;18.576;2023-05-07T13:59:53;4.63;;;1.97;;
70927;SDS011;58587;53.034;18.576;2023-05-07T14:02:18;3.10;;;2.17;;
70927;SDS011;58587;53.034;18.576;2023-05-07T14:04:44;4.88;;;3.00;;
70927;SDS011;58587;53.034;18.576;2023-05-07T14:07:10;8.03;;;4.27;;
70927;SDS011;58587;53.034;18.576;2023-05-07T14:09:35;5.85;;;3.67;;
70927;SDS011;58587;53.034;18.576;2023-05-07T14:12:00;3.97;;;2.10;;
70927;SDS011;58587;53.034;18.576;2023-05-07T14:14:26;3.33;;;2.00;;
70927;SDS011;58587;53.034;18.576;2023-05-07T14:16:51;12.30;;;4.80;;
70927;SDS011;58587;53.034;18.576;2023-05-07T14:19:17;4.03;;;3.00;;
70927;SDS011;58587;53.034;18.576;2023-05-07T14:21:42;6.90;;;3.80;;
70927;SDS011;58587;53.034;18.576;2023-05-07T14:24:07;6.97;;;3.33;;
70927;SDS011;58587;53.034;18.576;2023-05-07T14:26:33;3.57;;;3.00;;
70927;SDS011;58587;53.034;18.576;2023-05-07T14:28:59;3.47;;;2.60;;
70927;SDS011;58587;53.034;18.576;2023-05-07T14:31:25;4.20;;;3.00;;
70927;SDS011;58587;53.034;18.576;2023-05-07T14:33:50;4.50;;;2.90;;
70927;SDS011;58587;53.034;18.576;2023-05-07T14:36:17;3.20;;;2.90;;
70927;SDS011;58587;53.034;18.576;2023-05-07T14:38:44;4.00;;;2.40;;
70927;SDS011;58587;53.034;18.576;2023-05-07T14:41:10;2.73;;;2.00;;
70927;SDS011;58587;53.034;18.576;2023-05-07T14:43:35;6.33;;;2.17;;
70927;SDS011;58587;53.034;18.576;2023-05-07T14:46:00;3.43;;;2.27;;
70927;SDS011;58587;53.034;18.576;2023-05-07T14:48:26;3.73;;;2.23;;
70927;SDS011;58587;53.034;18.576;2023-05-07T14:50:51;4.90;;;2.40;;
70927;SDS011;58587;53.034;18.576;2023-05-07T14:53:16;3.28;;;2.10;;
70927;SDS011;58587;53.034;18.576;2023-05-07T14:55:42;4.77;;;2.30;;
70927;SDS011;58587;53.034;18.576;2023-05-07T14:58:07;4.00;;;2.40;;
70927;SDS011;58587;53.034;18.576;2023-05-07T15:00:33;3.83;;;2.60;;
70927;SDS011;58587;53.034;18.576;2023-05-07T15:03:01;5.63;;;2.72;;
70927;SDS011;58587;53.034;18.576;2023-05-07T15:05:30;8.10;;;3.72;;
70927;SDS011;58587;53.034;18.576;2023-05-07T15:07:55;6.33;;;3.70;;
70927;SDS011;58587;53.034;18.576;2023-05-07T15:10:21;4.90;;;3.07;;
70927;SDS011;58587;53.034;18.576;2023-05-07T15:12:46;5.03;;;2.07;;
70927;SDS011;58587;53.034;18.576;2023-05-07T15:15:11;2.87;;;2.53;;
70927;SDS011;58587;53.034;18.576;2023-05-07T15:17:37;3.93;;;2.50;;
70927;SDS011;58587;53.034;18.576;2023-05-07T15:20:02;4.80;;;3.10;;
70927;SDS011;58587;53.034;18.576;2023-05-07T15:22:29;23.55;;;18.95;;
70927;SDS011;58587;53.034;18.576;2023-05-07T15:24:55;9.13;;;6.18;;
70927;SDS011;58587;53.034;18.576;2023-05-07T15:27:21;11.33;;;7.00;;
70927;SDS011;58587;53.034;18.576;2023-05-07T15:29:47;5.93;;;3.90;;
70927;SDS011;58587;53.034;18.576;2023-05-07T15:32:12;4.33;;;3.10;;
70927;SDS011;58587;53.034;18.576;2023-05-07T15:34:38;8.43;;;4.40;;
70927;SDS011;58587;53.034;18.576;2023-05-07T15:37:03;6.72;;;2.90;;
70927;SDS011;58587;53.034;18.576;2023-05-07T15:39:29;3.37;;;2.23;;
70927;SDS011;58587;53.034;18.576;2023-05-07T15:41:55;5.43;;;2.95;;
70927;SDS011;58587;53.034;18.576;2023-05-07T15:44:21;3.30;;;2.17;;
70927;SDS011;58587;53.034;18.576;2023-05-07T15:46:46;3.50;;;3.20;;
70927;SDS011;58587;53.034;18.576;2023-05-07T15:49:11;4.37;;;2.70;;
70927;SDS011;58587;53.034;18.576;2023-05-07T15:51:37;4.67;;;3.03;;
70927;SDS011;58587;53.034;18.576;2023-05-07T15:54:02;5.13;;;3.20;;
70927;SDS011;58587;53.034;18.576;2023-05-07T15:56:27;3.33;;;2.70;;
70927;SDS011;58587;53.034;18.576;2023-05-07T15:58:53;3.33;;;2.73;;
70927;SDS011;58587;53.034;18.576;2023-05-07T16:01:18;5.43;;;3.50;;
70927;SDS011;58587;53.034;18.576;2023-05-07T16:03:43;4.37;;;2.97;;
70927;SDS011;58587;53.034;18.576;2023-05-07T16:06:09;2.90;;;2.40;;
70927;SDS011;58587;53.034;18.576;2023-05-07T16:08:36;3.83;;;2.50;;
70927;SDS011;58587;53.034;18.576;2023-05-07T16:11:03;3.05;;;2.03;;
70927;SDS011;58587;53.034;18.576;2023-05-07T16:13:28;7.30;;;4.20;;
70927;SDS011;58587;53.034;18.576;2023-05-07T16:15:57;5.03;;;2.80;;
70927;SDS011;58587;53.034;18.576;2023-05-07T16:18:23;4.07;;;2.47;;
70927;SDS011;58587;53.034;18.576;2023-05-07T16:20:48;4.17;;;2.30;;
70927;SDS011;58587;53.034;18.576;2023-05-07T16:23:14;8.20;;;2.53;;
70927;SDS011;58587;53.034;18.576;2023-05-07T16:25:39;3.53;;;1.97;;
70927;SDS011;58587;53.034;18.576;2023-05-07T16:28:05;5.32;;;2.25;;
70927;SDS011;58587;53.034;18.576;2023-05-07T16:30:31;5.03;;;2.70;;
70927;SDS011;58587;53.034;18.576;2023-05-07T16:32:57;6.53;;;3.70;;
70927;SDS011;58587;53.034;18.576;2023-05-07T16:35:22;9.37;;;6.33;;
70927;SDS011;58587;53.034;18.576;2023-05-07T16:37:48;4.23;;;3.00;;
70927;SDS011;58587;53.034;18.576;2023-05-07T16:40:13;3.75;;;2.33;;
70927;SDS011;58587;53.034;18.576;2023-05-07T16:42:39;2.50;;;1.87;;
70927;SDS011;58587;53.034;18.576;2023-05-07T16:45:05;3.97;;;2.75;;
70927;SDS011;58587;53.034;18.576;2023-05-07T16:47:31;4.60;;;3.10;;
70927;SDS011;58587;53.034;18.576;2023-05-07T16:49:57;3.60;;;2.85;;
70927;SDS011;58587;53.034;18.576;2023-05-07T16:52:24;4.70;;;2.60;;
70927;SDS011;58587;53.034;18.576;2023-05-07T16:54:50;4.50;;;2.72;;
70927;SDS011;58587;53.034;18.576;2023-05-07T16:57:16;6.43;;;5.37;;
70927;SDS011;58587;53.034;18.576;2023-05-07T16:59:41;8.20;;;6.10;;
70927;SDS011;58587;53.034;18.576;2023-05-07T17:02:06;7.77;;;6.33;;
70927;SDS011;58587;53.034;18.576;2023-05-07T17:04:31;12.17;;;7.57;;
70927;SDS011;58587;53.034;18.576;2023-05-07T17:06:57;24.00;;;11.67;;
70927;SDS011;58587;53.034;18.576;2023-05-07T17:09:23;24.95;;;11.57;;
70927;SDS011;58587;53.034;18.576;2023-05-07T17:11:48;21.50;;;10.60;;
70927;SDS011;58587;53.034;18.576;2023-05-07T17:14:13;12.83;;;7.43;;
70927;SDS011;58587;53.034;18.576;2023-05-07T17:16:39;15.38;;;8.32;;
70927;SDS011;58587;53.034;18.576;2023-05-07T17:19:04;15.03;;;10.13;;
70927;SDS011;58587;53.034;18.576;2023-05-07T17:21:30;16.93;;;11.00;;
70927;SDS011;58587;53.034;18.576;2023-05-07T17:23:55;16.70;;;9.43;;
70927;SDS011;58587;53.034;18.576;2023-05-07T17:26:20;21.15;;;11.60;;
70927;SDS011;58587;53.034;18.576;2023-05-07T17:28:46;16.40;;;8.77;;
70927;SDS011;58587;53.034;18.576;2023-05-07T17:31:11;14.80;;;6.67;;
70927;SDS011;58587;53.034;18.576;2023-05-07T17:33:37;17.30;;;8.53;;
70927;SDS011;58587;53.034;18.576;2023-05-07T17:36:02;19.00;;;7.77;;
70927;SDS011;58587;53.034;18.576;2023-05-07T17:38:28;24.80;;;10.83;;
70927;SDS011;58587;53.034;18.576;2023-05-07T17:40:54;16.77;;;7.07;;
70927;SDS011;58587;53.034;18.576;2023-05-07T17:43:19;14.65;;;8.98;;
70927;SDS011;58587;53.034;18.576;2023-05-07T17:45:47;17.13;;;8.93;;
70927;SDS011;58587;53.034;18.576;2023-05-07T17:48:13;17.80;;;8.73;;
70927;SDS011;58587;53.034;18.576;2023-05-07T17:50:38;12.07;;;6.32;;
70927;SDS011;58587;53.034;18.576;2023-05-07T17:53:04;14.97;;;7.80;;
70927;SDS011;58587;53.034;18.576;2023-05-07T17:55:30;18.38;;;10.90;;
70927;SDS011;58587;53.034;18.576;2023-05-07T17:57:57;12.43;;;6.63;;
70927;SDS011;58587;53.034;18.576;2023-05-07T18:00:23;9.60;;;5.20;;
70927;SDS011;58587;53.034;18.576;2023-05-07T18:02:50;9.63;;;4.90;;
70927;SDS011;58587;53.034;18.576;2023-05-07T18:05:15;14.15;;;7.90;;
70927;SDS011;58587;53.034;18.576;2023-05-07T18:07:41;18.87;;;9.97;;
70927;SDS011;58587;53.034;18.576;2023-05-07T18:10:06;21.10;;;10.77;;
70927;SDS011;58587;53.034;18.576;2023-05-07T18:12:32;15.27;;;7.63;;
70927;SDS011;58587;53.034;18.576;2023-05-07T18:14:57;7.80;;;3.60;;
70927;SDS011;58587;53.034;18.576;2023-05-07T18:17:22;8.30;;;4.53;;
70927;SDS011;58587;53.034;18.576;2023-05-07T18:19:48;32.60;;;15.40;;
70927;SDS011;58587;53.034;18.576;2023-05-07T18:22:14;22.52;;;11.25;;
70927;SDS011;58587;53.034;18.576;2023-05-07T18:24:40;29.53;;;14.20;;
70927;SDS011;58587;53.034;18.576;2023-05-07T18:27:05;33.37;;;15.60;;
70927;SDS011;58587;53.034;18.576;2023-05-07T18:29:31;15.00;;;6.43;;
70927;SDS011;58587;53.034;18.576;2023-05-07T18:31:56;111.43;;;26.67;;
70927;SDS011;58587;53.034;18.576;2023-05-07T18:34:21;45.47;;;12.00;;
70927;SDS011;58587;53.034;18.576;2023-05-07T18:36:47;93.83;;;22.93;;
70927;SDS011;58587;53.034;18.576;2023-05-07T18:39:12;117.00;;;28.00;;
70927;SDS011;58587;53.034;18.576;2023-05-07T18:41:37;93.70;;;24.23;;
70927;SDS011;58587;53.034;18.576;2023-05-07T18:44:03;44.83;;;12.60;;
70927;SDS011;58587;53.034;18.576;2023-05-07T18:46:28;30.87;;;10.77;;
70927;SDS011;58587;53.034;18.576;2023-05-07T18:48:53;26.83;;;8.77;;
70927;SDS011;58587;53.034;18.576;2023-05-07T18:51:19;11.75;;;4.88;;
70927;SDS011;58587;53.034;18.576;2023-05-07T18:53:45;16.20;;;6.93;;
70927;SDS011;58587;53.034;18.576;2023-05-07T18:56:10;30.23;;;14.77;;
70927;SDS011;58587;53.034;18.576;2023-05-07T18:58:35;30.47;;;15.37;;
70927;SDS011;58587;53.034;18.576;2023-05-07T19:01:01;25.13;;;12.97;;
70927;SDS011;58587;53.034;18.576;2023-05-07T19:03:27;19.80;;;8.95;;
70927;SDS011;58587;53.034;18.576;2023-05-07T19:05:53;13.77;;;7.30;;
70927;SDS011;58587;53.034;18.576;2023-05-07T19:08:19;16.52;;;7.53;;
70927;SDS011;58587;53.034;18.576;2023-05-07T19:10:45;16.70;;;7.90;;
70927;SDS011;58587;53.034;18.576;2023-05-07T19:13:10;19.77;;;9.17;;
70927;SDS011;58587;53.034;18.576;2023-05-07T19:15:35;23.38;;;10.60;;
70927;SDS011;58587;53.034;18.576;2023-05-07T19:18:01;26.10;;;12.23;;
70927;SDS011;58587;53.034;18.576;2023-05-07T19:20:27;25.97;;;12.30;;
70927;SDS011;58587;53.034;18.576;2023-05-07T19:22:52;29.70;;;15.20;;
70927;SDS011;58587;53.034;18.576;2023-05-07T19:25:18;34.77;;;18.20;;
70927;SDS011;58587;53.034;18.576;2023-05-07T19:27:43;56.33;;;27.50;;
70927;SDS011;58587;53.034;18.576;2023-05-07T19:30:08;66.73;;;31.23;;
70927;SDS011;58587;53.034;18.576;2023-05-07T19:32:34;86.78;;;38.00;;
70927;SDS011;58587;53.034;18.576;2023-05-07T19:35:00;117.03;;;44.30;;
70927;SDS011;58587;53.034;18.576;2023-05-07T19:37:25;97.67;;;37.03;;
70927;SDS011;58587;53.034;18.576;2023-05-07T19:39:51;103.53;;;38.92;;
70927;SDS011;58587;53.034;18.576;2023-05-07T19:42:17;110.57;;;39.67;;
70927;SDS011;58587;53.034;18.576;2023-05-07T19:44:43;113.43;;;41.77;;
70927;SDS011;58587;53.034;18.576;2023-05-07T19:47:08;110.40;;;40.93;;
70927;SDS011;58587;53.034;18.576;2023-05-07T19:49:33;93.27;;;34.50;;
70927;SDS011;58587;53.034;18.576;2023-05-07T19:51:59;75.50;;;28.87;;
70927;SDS011;58587;53.034;18.576;2023-05-07T19:54:24;76.60;;;29.70;;
70927;SDS011;58587;53.034;18.576;2023-05-07T19:56:50;67.15;;;27.27;;
70927;SDS011;58587;53.034;18.576;2023-05-07T19:59:15;52.07;;;21.63;;
70927;SDS011;58587;53.034;18.576;2023-05-07T20:01:41;42.93;;;18.00;;
70927;SDS011;58587;53.034;18.576;2023-05-07T20:04:06;36.37;;;16.00;;
70927;SDS011;58587;53.034;18.576;2023-05-07T20:06:31;33.97;;;15.07;;
70927;SDS011;58587;53.034;18.576;2023-05-07T20:08:57;21.08;;;10.73;;
70927;SDS011;58587;53.034;18.576;2023-05-07T20:11:22;15.63;;;9.03;;
70927;SDS011;58587;53.034;18.576;2023-05-07T20:13:47;14.83;;;8.40;;
70927;SDS011;58587;53.034;18.576;2023-05-07T20:16:13;15.87;;;9.63;;
70927;SDS011;58587;53.034;18.576;2023-05-07T20:18:38;18.77;;;9.10;;
70927;SDS011;58587;53.034;18.576;2023-05-07T20:21:04;15.05;;;7.63;;
70927;SDS011;58587;53.034;18.576;2023-05-07T20:23:29;15.13;;;8.63;;
70927;SDS011;58587;53.034;18.576;2023-05-07T20:25:55;16.70;;;9.43;;
70927;SDS011;58587;53.034;18.576;2023-05-07T20:28:22;12.43;;;7.53;;
70927;SDS011;58587;53.034;18.576;2023-05-07T20:30:47;14.27;;;7.40;;
70927;SDS011;58587;53.034;18.576;2023-05-07T20:33:13;11.48;;;7.35;;
70927;SDS011;58587;53.034;18.576;2023-05-07T20:35:39;12.65;;;6.63;;
70927;SDS011;58587;53.034;18.576;2023-05-07T20:38:04;12.13;;;6.70;;
70927;SDS011;58587;53.034;18.576;2023-05-07T20:40:30;11.48;;;6.93;;
70927;SDS011;58587;53.034;18.576;2023-05-07T20:42:57;16.10;;;7.50;;
70927;SDS011;58587;53.034;18.576;2023-05-07T20:45:23;13.23;;;7.95;;
70927;SDS011;58587;53.034;18.576;2023-05-07T20:47:48;12.80;;;7.72;;
70927;SDS011;58587;53.034;18.576;2023-05-07T20:50:13;14.33;;;7.90;;
70927;SDS011;58587;53.034;18.576;2023-05-07T20:52:39;12.93;;;7.70;;
70927;SDS011;58587;53.034;18.576;2023-05-07T20:55:05;13.68;;;7.35;;
70927;SDS011;58587;53.034;18.576;2023-05-07T20:57:31;14.70;;;7.20;;
70927;SDS011;58587;53.034;18.576;2023-05-07T20:59:56;11.43;;;7.10;;
70927;SDS011;58587;53.034;18.576;2023-05-07T21:02:21;13.50;;;7.00;;
70927;SDS011;58587;53.034;18.576;2023-05-07T21:04:47;15.32;;;7.22;;
70927;SDS011;58587;53.034;18.576;2023-05-07T21:07:15;13.33;;;5.97;;
70927;SDS011;58587;53.034;18.576;2023-05-07T21:09:40;7.65;;;4.60;;
70927;SDS011;58587;53.034;18.576;2023-05-07T21:12:06;8.07;;;4.23;;
70927;SDS011;58587;53.034;18.576;2023-05-07T21:14:31;8.85;;;4.43;;
70927;SDS011;58587;53.034;18.576;2023-05-07T21:16:57;9.90;;;4.10;;
70927;SDS011;58587;53.034;18.576;2023-05-07T21:19:24;8.60;;;4.40;;
70927;SDS011;58587;53.034;18.576;2023-05-07T21:21:49;7.65;;;4.50;;
70927;SDS011;58587;53.034;18.576;2023-05-07T21:24:15;9.30;;;4.57;;
70927;SDS011;58587;53.034;18.576;2023-05-07T21:26:40;8.87;;;4.03;;
70927;SDS011;58587;53.034;18.576;2023-05-07T21:29:06;7.22;;;4.07;;
70927;SDS011;58587;53.034;18.576;2023-05-07T21:31:32;10.70;;;4.55;;
70927;SDS011;58587;53.034;18.576;2023-05-07T21:33:58;10.13;;;4.53;;
70927;SDS011;58587;53.034;18.576;2023-05-07T21:36:23;9.33;;;4.60;;
70927;SDS011;58587;53.034;18.576;2023-05-07T21:38:49;8.23;;;4.43;;
70927;SDS011;58587;53.034;18.576;2023-05-07T21:41:14;6.17;;;4.03;;
70927;SDS011;58587;53.034;18.576;2023-05-07T21:43:39;8.70;;;4.45;;
70927;SDS011;58587;53.034;18.576;2023-05-07T21:46:08;7.20;;;4.50;;
70927;SDS011;58587;53.034;18.576;2023-05-07T21:48:33;10.38;;;4.82;;
70927;SDS011;58587;53.034;18.576;2023-05-07T21:51:02;8.65;;;4.50;;
70927;SDS011;58587;53.034;18.576;2023-05-07T21:53:29;7.75;;;4.68;;
70927;SDS011;58587;53.034;18.576;2023-05-07T21:55:54;8.03;;;4.27;;
70927;SDS011;58587;53.034;18.576;2023-05-07T21:58:20;8.13;;;4.17;;
70927;SDS011;58587;53.034;18.576;2023-05-07T22:00:45;7.23;;;3.70;;
70927;SDS011;58587;53.034;18.576;2023-05-07T22:03:11;6.85;;;4.28;;
70927;SDS011;58587;53.034;18.576;2023-05-07T22:05:36;8.00;;;4.33;;
70927;SDS011;58587;53.034;18.576;2023-05-07T22:08:01;11.10;;;4.70;;
70927;SDS011;58587;53.034;18.576;2023-05-07T22:10:27;12.15;;;6.60;;
70927;SDS011;58587;53.034;18.576;2023-05-07T22:12:52;26.17;;;10.40;;
70927;SDS011;58587;53.034;18.576;2023-05-07T22:15:17;41.90;;;15.63;;
70927;SDS011;58587;53.034;18.576;2023-05-07T22:17:43;31.07;;;12.60;;
70927;SDS011;58587;53.034;18.576;2023-05-07T22:20:08;20.70;;;9.13;;
70927;SDS011;58587;53.034;18.576;2023-05-07T22:22:53;15.45;;;6.32;;
70927;SDS011;58587;53.034;18.576;2023-05-07T22:25:20;10.30;;;5.40;;
70927;SDS011;58587;53.034;18.576;2023-05-07T22:27:46;8.70;;;4.23;;
70927;SDS011;58587;53.034;18.576;2023-05-07T22:30:12;7.72;;;4.30;;
70927;SDS011;58587;53.034;18.576;2023-05-07T22:32:37;10.93;;;4.63;;
70927;SDS011;58587;53.034;18.576;2023-05-07T22:35:03;8.88;;;4.28;;
70927;SDS011;58587;53.034;18.576;2023-05-07T22:37:29;5.68;;;3.53;;
70927;SDS011;58587;53.034;18.576;2023-05-07T22:39:54;9.02;;;4.35;;
70927;SDS011;58587;53.034;18.576;2023-05-07T22:42:20;6.40;;;4.03;;
70927;SDS011;58587;53.034;18.576;2023-05-07T22:44:45;7.87;;;4.80;;
70927;SDS011;58587;53.034;18.576;2023-05-07T22:47:10;8.30;;;4.87;;
70927;SDS011;58587;53.034;18.576;2023-05-07T22:49:36;9.77;;;5.27;;
70927;SDS011;58587;53.034;18.576;2023-05-07T22:52:01;9.77;;;5.75;;
70927;SDS011;58587;53.034;18.576;2023-05-07T22:54:27;9.18;;;5.55;;
70927;SDS011;58587;53.034;18.576;2023-05-07T22:56:52;11.90;;;5.40;;
70927;SDS011;58587;53.034;18.576;2023-05-07T22:59:18;9.77;;;6.17;;
70927;SDS011;58587;53.034;18.576;2023-05-07T23:01:44;10.43;;;5.80;;
70927;SDS011;58587;53.034;18.576;2023-05-07T23:04:10;10.27;;;5.90;;
70927;SDS011;58587;53.034;18.576;2023-05-07T23:06:35;14.20;;;7.00;;
70927;SDS011;58587;53.034;18.576;2023-05-07T23:09:01;14.93;;;8.67;;
70927;SDS011;58587;53.034;18.576;2023-05-07T23:11:26;21.63;;;12.03;;
70927;SDS011;58587;53.034;18.576;2023-05-07T23:13:52;18.65;;;10.82;;
70927;SDS011;58587;53.034;18.576;2023-05-07T23:16:17;14.27;;;8.40;;
70927;SDS011;58587;53.034;18.576;2023-05-07T23:18:42;12.70;;;7.73;;
70927;SDS011;58587;53.034;18.576;2023-05-07T23:21:08;14.37;;;8.27;;
70927;SDS011;58587;53.034;18.576;2023-05-07T23:23:33;14.97;;;7.97;;
70927;SDS011;58587;53.034;18.576;2023-05-07T23:25:59;15.77;;;8.73;;
70927;SDS011;58587;53.034;18.576;2023-05-07T23:28:24;15.07;;;9.07;;
70927;SDS011;58587;53.034;18.576;2023-05-07T23:30:50;14.60;;;8.90;;
70927;SDS011;58587;53.034;18.576;2023-05-07T23:33:15;17.30;;;10.10;;
70927;SDS011;58587;53.034;18.576;2023-05-07T23:35:41;16.00;;;9.55;;
70927;SDS011;58587;53.034;18.576;2023-05-07T23:38:06;20.93;;;10.47;;
70927;SDS011;58587;53.034;18.576;2023-05-07T23:40:32;17.50;;;10.20;;
70927;SDS011;58587;53.034;18.576;2023-05-07T23:42:57;16.73;;;9.30;;
70927;SDS011;58587;53.034;18.576;2023-05-07T23:45:22;16.13;;;10.30;;
70927;SDS011;58587;53.034;18.576;2023-05-07T23:47:47;17.17;;;10.57;;
70927;SDS011;58587;53.034;18.576;2023-05-07T23:50:13;16.30;;;9.37;;
70927;SDS011;58587;53.034;18.576;2023-05-07T23:52:38;17.27;;;9.75;;
70927;SDS011;58587;53.034;18.576;2023-05-07T23:55:03;20.70;;;11.03;;